sensor_id;sensor_type;location;lat;lon;timestamp;P1;durP1;ratioP1;P2;durP2;ratioP2
39994;SDS011;25686;51.908;10.418;2022-07-05T00:01:59;3.03;;;1.52;;
39994;SDS011;25686;51.908;10.418;2022-07-05T00:03:59;3.97;;;1.48;;
39994;SDS011;25686;51.908;10.418;2022-07-05T00:06:01;3.00;;;1.50;;
39994;SDS011;25686;51.908;10.418;2022-07-05T00:08:02;3.50;;;1.60;;
39994;SDS011;25686;51.908;10.418;2022-07-05T00:10:03;3.67;;;1.60;;
39994;SDS011;25686;51.908;10.418;2022-07-05T00:12:05;2.67;;;1.80;;
39994;SDS011;25686;51.908;10.418;2022-07-05T00:14:06;5.45;;;1.92;;
39994;SDS011;25686;51.908;10.418;2022-07-05T00:16:06;5.57;;;1.80;;
39994;SDS011;25686;51.908;10.418;2022-07-05T00:18:07;4.50;;;1.73;;
39994;SDS011;25686;51.908;10.418;2022-07-05T00:20:08;8.02;;;2.00;;
39994;SDS011;25686;51.908;10.418;2022-07-05T00:22:10;3.50;;;1.85;;
39994;SDS011;25686;51.908;10.418;2022-07-05T00:24:10;4.10;;;1.80;;
39994;SDS011;25686;51.908;10.418;2022-07-05T00:26:11;6.28;;;2.33;;
39994;SDS011;25686;51.908;10.418;2022-07-05T00:28:12;3.35;;;1.92;;
39994;SDS011;25686;51.908;10.418;2022-07-05T00:30:15;6.85;;;2.25;;
39994;SDS011;25686;51.908;10.418;2022-07-05T00:32:16;3.88;;;2.15;;
39994;SDS011;25686;51.908;10.418;2022-07-05T00:34:16;3.88;;;2.10;;
39994;SDS011;25686;51.908;10.418;2022-07-05T00:36:17;6.57;;;2.38;;
39994;SDS011;25686;51.908;10.418;2022-07-05T00:38:18;3.65;;;2.25;;
39994;SDS011;25686;51.908;10.418;2022-07-05T00:40:19;4.70;;;2.25;;
39994;SDS011;25686;51.908;10.418;2022-07-05T00:42:20;8.82;;;2.20;;
39994;SDS011;25686;51.908;10.418;2022-07-05T00:44:29;4.85;;;2.28;;
39994;SDS011;25686;51.908;10.418;2022-07-05T00:46:30;3.78;;;2.38;;
39994;SDS011;25686;51.908;10.418;2022-07-05T00:48:31;3.05;;;2.15;;
39994;SDS011;25686;51.908;10.418;2022-07-05T00:50:33;5.80;;;2.42;;
39994;SDS011;25686;51.908;10.418;2022-07-05T00:52:34;3.45;;;2.30;;
39994;SDS011;25686;51.908;10.418;2022-07-05T00:54:35;3.60;;;2.30;;
39994;SDS011;25686;51.908;10.418;2022-07-05T00:56:36;5.72;;;2.60;;
39994;SDS011;25686;51.908;10.418;2022-07-05T00:58:37;4.35;;;2.50;;
39994;SDS011;25686;51.908;10.418;2022-07-05T01:00:38;3.15;;;2.10;;
39994;SDS011;25686;51.908;10.418;2022-07-05T01:02:39;5.40;;;2.35;;
39994;SDS011;25686;51.908;10.418;2022-07-05T01:04:41;5.57;;;2.50;;
39994;SDS011;25686;51.908;10.418;2022-07-05T01:06:42;5.40;;;2.47;;
39994;SDS011;25686;51.908;10.418;2022-07-05T01:08:45;5.50;;;2.63;;
39994;SDS011;25686;51.908;10.418;2022-07-05T01:10:46;7.70;;;3.00;;
39994;SDS011;25686;51.908;10.418;2022-07-05T01:12:47;4.38;;;2.40;;
39994;SDS011;25686;51.908;10.418;2022-07-05T01:14:48;3.83;;;2.45;;
39994;SDS011;25686;51.908;10.418;2022-07-05T01:16:50;5.28;;;2.70;;
39994;SDS011;25686;51.908;10.418;2022-07-05T01:18:51;3.47;;;2.67;;
39994;SDS011;25686;51.908;10.418;2022-07-05T01:20:53;6.07;;;2.90;;
39994;SDS011;25686;51.908;10.418;2022-07-05T01:22:54;5.57;;;2.63;;
39994;SDS011;25686;51.908;10.418;2022-07-05T01:24:55;6.95;;;2.72;;
39994;SDS011;25686;51.908;10.418;2022-07-05T01:26:56;7.28;;;2.80;;
39994;SDS011;25686;51.908;10.418;2022-07-05T01:28:57;4.15;;;2.65;;
39994;SDS011;25686;51.908;10.418;2022-07-05T01:31:00;5.20;;;2.70;;
39994;SDS011;25686;51.908;10.418;2022-07-05T01:33:01;7.13;;;2.97;;
39994;SDS011;25686;51.908;10.418;2022-07-05T01:35:03;4.85;;;3.10;;
39994;SDS011;25686;51.908;10.418;2022-07-05T01:37:04;7.35;;;2.95;;
39994;SDS011;25686;51.908;10.418;2022-07-05T01:39:06;6.72;;;2.95;;
39994;SDS011;25686;51.908;10.418;2022-07-05T01:41:08;3.90;;;2.60;;
39994;SDS011;25686;51.908;10.418;2022-07-05T01:43:09;7.65;;;3.00;;
39994;SDS011;25686;51.908;10.418;2022-07-05T01:45:10;5.15;;;2.72;;
39994;SDS011;25686;51.908;10.418;2022-07-05T01:47:11;7.43;;;3.20;;
39994;SDS011;25686;51.908;10.418;2022-07-05T01:49:13;5.22;;;2.90;;
39994;SDS011;25686;51.908;10.418;2022-07-05T01:51:20;6.82;;;3.20;;
39994;SDS011;25686;51.908;10.418;2022-07-05T01:53:22;4.03;;;2.80;;
39994;SDS011;25686;51.908;10.418;2022-07-05T01:55:23;3.95;;;2.70;;
39994;SDS011;25686;51.908;10.418;2022-07-05T01:57:24;3.60;;;2.92;;
39994;SDS011;25686;51.908;10.418;2022-07-05T01:59:26;6.30;;;2.92;;
39994;SDS011;25686;51.908;10.418;2022-07-05T02:01:38;4.22;;;2.88;;
39994;SDS011;25686;51.908;10.418;2022-07-05T02:03:39;6.07;;;2.70;;
39994;SDS011;25686;51.908;10.418;2022-07-05T02:05:40;5.15;;;2.85;;
39994;SDS011;25686;51.908;10.418;2022-07-05T02:07:47;6.97;;;2.92;;
39994;SDS011;25686;51.908;10.418;2022-07-05T02:09:48;7.13;;;2.83;;
39994;SDS011;25686;51.908;10.418;2022-07-05T02:11:50;5.57;;;3.10;;
39994;SDS011;25686;51.908;10.418;2022-07-05T02:13:51;3.70;;;3.15;;
39994;SDS011;25686;51.908;10.418;2022-07-05T02:15:52;5.07;;;3.30;;
39994;SDS011;25686;51.908;10.418;2022-07-05T02:17:52;4.45;;;2.90;;
39994;SDS011;25686;51.908;10.418;2022-07-05T02:19:53;5.60;;;3.13;;
39994;SDS011;25686;51.908;10.418;2022-07-05T02:21:54;6.25;;;3.20;;
39994;SDS011;25686;51.908;10.418;2022-07-05T02:23:55;5.32;;;2.90;;
39994;SDS011;25686;51.908;10.418;2022-07-05T02:25:56;8.15;;;3.63;;
39994;SDS011;25686;51.908;10.418;2022-07-05T02:27:57;6.55;;;3.00;;
39994;SDS011;25686;51.908;10.418;2022-07-05T02:29:58;8.15;;;3.30;;
39994;SDS011;25686;51.908;10.418;2022-07-05T02:32:00;7.45;;;3.28;;
39994;SDS011;25686;51.908;10.418;2022-07-05T02:34:01;6.28;;;3.10;;
39994;SDS011;25686;51.908;10.418;2022-07-05T02:36:05;8.45;;;3.40;;
39994;SDS011;25686;51.908;10.418;2022-07-05T02:38:07;6.75;;;3.30;;
39994;SDS011;25686;51.908;10.418;2022-07-05T02:40:11;6.05;;;3.70;;
39994;SDS011;25686;51.908;10.418;2022-07-05T02:42:12;5.10;;;3.40;;
39994;SDS011;25686;51.908;10.418;2022-07-05T02:44:13;6.78;;;3.38;;
39994;SDS011;25686;51.908;10.418;2022-07-05T02:46:14;10.73;;;3.53;;
39994;SDS011;25686;51.908;10.418;2022-07-05T02:48:15;5.95;;;3.45;;
39994;SDS011;25686;51.908;10.418;2022-07-05T02:50:16;5.00;;;3.00;;
39994;SDS011;25686;51.908;10.418;2022-07-05T02:52:17;6.32;;;3.45;;
39994;SDS011;25686;51.908;10.418;2022-07-05T02:54:18;6.47;;;3.50;;
39994;SDS011;25686;51.908;10.418;2022-07-05T02:56:18;4.30;;;3.38;;
39994;SDS011;25686;51.908;10.418;2022-07-05T02:58:19;5.20;;;3.20;;
39994;SDS011;25686;51.908;10.418;2022-07-05T03:00:20;4.03;;;3.28;;
39994;SDS011;25686;51.908;10.418;2022-07-05T03:02:22;7.63;;;3.90;;
39994;SDS011;25686;51.908;10.418;2022-07-05T03:04:23;6.60;;;3.38;;
39994;SDS011;25686;51.908;10.418;2022-07-05T03:06:23;7.45;;;3.50;;
39994;SDS011;25686;51.908;10.418;2022-07-05T03:08:24;6.75;;;3.40;;
39994;SDS011;25686;51.908;10.418;2022-07-05T03:10:25;5.65;;;3.50;;
39994;SDS011;25686;51.908;10.418;2022-07-05T03:12:26;6.07;;;3.88;;
39994;SDS011;25686;51.908;10.418;2022-07-05T03:14:27;9.85;;;3.78;;
39994;SDS011;25686;51.908;10.418;2022-07-05T03:16:28;5.57;;;3.53;;
39994;SDS011;25686;51.908;10.418;2022-07-05T03:18:29;5.80;;;3.33;;
39994;SDS011;25686;51.908;10.418;2022-07-05T03:20:30;5.97;;;3.88;;
39994;SDS011;25686;51.908;10.418;2022-07-05T03:22:31;6.93;;;3.67;;
39994;SDS011;25686;51.908;10.418;2022-07-05T03:24:32;10.93;;;3.60;;
39994;SDS011;25686;51.908;10.418;2022-07-05T03:26:33;4.57;;;3.42;;
39994;SDS011;25686;51.908;10.418;2022-07-05T03:28:34;7.13;;;4.07;;
39994;SDS011;25686;51.908;10.418;2022-07-05T03:30:35;4.38;;;3.13;;
39994;SDS011;25686;51.908;10.418;2022-07-05T03:32:35;5.63;;;3.22;;
39994;SDS011;25686;51.908;10.418;2022-07-05T03:34:36;6.40;;;3.30;;
39994;SDS011;25686;51.908;10.418;2022-07-05T03:36:38;4.53;;;3.30;;
39994;SDS011;25686;51.908;10.418;2022-07-05T03:38:39;6.55;;;3.10;;
39994;SDS011;25686;51.908;10.418;2022-07-05T03:40:40;3.83;;;3.17;;
39994;SDS011;25686;51.908;10.418;2022-07-05T03:42:41;6.32;;;3.15;;
39994;SDS011;25686;51.908;10.418;2022-07-05T03:44:42;3.83;;;3.00;;
39994;SDS011;25686;51.908;10.418;2022-07-05T03:46:42;6.85;;;3.30;;
39994;SDS011;25686;51.908;10.418;2022-07-05T03:48:43;5.47;;;3.17;;
39994;SDS011;25686;51.908;10.418;2022-07-05T03:50:44;4.72;;;3.17;;
39994;SDS011;25686;51.908;10.418;2022-07-05T03:52:45;6.22;;;3.05;;
39994;SDS011;25686;51.908;10.418;2022-07-05T03:54:46;4.38;;;3.03;;
39994;SDS011;25686;51.908;10.418;2022-07-05T03:56:47;5.53;;;3.20;;
39994;SDS011;25686;51.908;10.418;2022-07-05T03:58:48;6.28;;;2.90;;
39994;SDS011;25686;51.908;10.418;2022-07-05T04:00:50;6.50;;;2.72;;
39994;SDS011;25686;51.908;10.418;2022-07-05T04:02:51;5.47;;;3.10;;
39994;SDS011;25686;51.908;10.418;2022-07-05T04:04:51;6.85;;;3.13;;
39994;SDS011;25686;51.908;10.418;2022-07-05T04:06:52;7.22;;;3.30;;
39994;SDS011;25686;51.908;10.418;2022-07-05T04:08:53;6.90;;;3.00;;
39994;SDS011;25686;51.908;10.418;2022-07-05T04:10:54;7.93;;;3.60;;
39994;SDS011;25686;51.908;10.418;2022-07-05T04:12:55;5.70;;;3.05;;
39994;SDS011;25686;51.908;10.418;2022-07-05T04:14:56;6.22;;;3.03;;
39994;SDS011;25686;51.908;10.418;2022-07-05T04:16:57;6.40;;;3.08;;
39994;SDS011;25686;51.908;10.418;2022-07-05T04:18:58;7.00;;;3.03;;
39994;SDS011;25686;51.908;10.418;2022-07-05T04:20:59;4.35;;;3.00;;
39994;SDS011;25686;51.908;10.418;2022-07-05T04:23:00;6.20;;;2.63;;
39994;SDS011;25686;51.908;10.418;2022-07-05T04:25:01;4.13;;;2.80;;
39994;SDS011;25686;51.908;10.418;2022-07-05T04:27:17;8.40;;;3.13;;
39994;SDS011;25686;51.908;10.418;2022-07-05T04:29:18;5.63;;;2.85;;
39994;SDS011;25686;51.908;10.418;2022-07-05T04:31:19;7.38;;;2.92;;
39994;SDS011;25686;51.908;10.418;2022-07-05T04:33:19;4.43;;;2.70;;
39994;SDS011;25686;51.908;10.418;2022-07-05T04:35:20;4.18;;;2.63;;
39994;SDS011;25686;51.908;10.418;2022-07-05T04:37:21;6.35;;;2.80;;
39994;SDS011;25686;51.908;10.418;2022-07-05T04:39:22;4.25;;;2.72;;
39994;SDS011;25686;51.908;10.418;2022-07-05T04:41:23;5.03;;;2.60;;
39994;SDS011;25686;51.908;10.418;2022-07-05T04:43:24;4.10;;;2.65;;
39994;SDS011;25686;51.908;10.418;2022-07-05T04:45:25;6.60;;;2.88;;
39994;SDS011;25686;51.908;10.418;2022-07-05T04:47:26;3.58;;;2.78;;
39994;SDS011;25686;51.908;10.418;2022-07-05T04:49:27;3.97;;;2.40;;
39994;SDS011;25686;51.908;10.418;2022-07-05T04:51:28;5.90;;;2.55;;
39994;SDS011;25686;51.908;10.418;2022-07-05T04:53:29;4.78;;;2.47;;
39994;SDS011;25686;51.908;10.418;2022-07-05T04:55:30;7.75;;;2.50;;
39994;SDS011;25686;51.908;10.418;2022-07-05T04:57:40;2.75;;;2.35;;
39994;SDS011;25686;51.908;10.418;2022-07-05T04:59:41;5.93;;;2.50;;
39994;SDS011;25686;51.908;10.418;2022-07-05T05:01:42;6.85;;;2.55;;
39994;SDS011;25686;51.908;10.418;2022-07-05T05:03:43;6.75;;;2.42;;
39994;SDS011;25686;51.908;10.418;2022-07-05T05:05:44;4.72;;;2.60;;
39994;SDS011;25686;51.908;10.418;2022-07-05T05:07:45;4.55;;;2.60;;
39994;SDS011;25686;51.908;10.418;2022-07-05T05:09:46;6.20;;;2.42;;
39994;SDS011;25686;51.908;10.418;2022-07-05T05:11:47;5.30;;;2.70;;
39994;SDS011;25686;51.908;10.418;2022-07-05T05:13:48;7.07;;;2.40;;
39994;SDS011;25686;51.908;10.418;2022-07-05T05:15:49;7.72;;;2.78;;
39994;SDS011;25686;51.908;10.418;2022-07-05T05:17:50;5.97;;;2.60;;
39994;SDS011;25686;51.908;10.418;2022-07-05T05:19:51;6.20;;;2.45;;
39994;SDS011;25686;51.908;10.418;2022-07-05T05:21:51;10.65;;;2.85;;
39994;SDS011;25686;51.908;10.418;2022-07-05T05:23:53;9.45;;;2.40;;
39994;SDS011;25686;51.908;10.418;2022-07-05T05:25:53;9.32;;;2.42;;
39994;SDS011;25686;51.908;10.418;2022-07-05T05:27:54;9.63;;;2.80;;
39994;SDS011;25686;51.908;10.418;2022-07-05T05:29:55;7.70;;;2.40;;
39994;SDS011;25686;51.908;10.418;2022-07-05T05:31:56;6.30;;;2.30;;
39994;SDS011;25686;51.908;10.418;2022-07-05T05:33:57;7.05;;;2.35;;
39994;SDS011;25686;51.908;10.418;2022-07-05T05:35:58;6.45;;;2.40;;
39994;SDS011;25686;51.908;10.418;2022-07-05T05:37:59;5.50;;;2.50;;
39994;SDS011;25686;51.908;10.418;2022-07-05T05:40:00;9.10;;;2.67;;
39994;SDS011;25686;51.908;10.418;2022-07-05T05:42:01;7.07;;;2.15;;
39994;SDS011;25686;51.908;10.418;2022-07-05T05:44:02;4.95;;;2.15;;
39994;SDS011;25686;51.908;10.418;2022-07-05T05:46:03;8.07;;;2.30;;
39994;SDS011;25686;51.908;10.418;2022-07-05T05:48:04;6.40;;;2.58;;
39994;SDS011;25686;51.908;10.418;2022-07-05T05:50:05;4.97;;;2.30;;
39994;SDS011;25686;51.908;10.418;2022-07-05T05:52:06;7.82;;;2.70;;
39994;SDS011;25686;51.908;10.418;2022-07-05T05:54:07;7.05;;;2.25;;
39994;SDS011;25686;51.908;10.418;2022-07-05T05:56:08;5.82;;;2.60;;
39994;SDS011;25686;51.908;10.418;2022-07-05T05:58:13;6.05;;;2.53;;
39994;SDS011;25686;51.908;10.418;2022-07-05T06:00:14;3.90;;;2.20;;
39994;SDS011;25686;51.908;10.418;2022-07-05T06:02:15;5.65;;;2.10;;
39994;SDS011;25686;51.908;10.418;2022-07-05T06:04:16;6.80;;;2.20;;
39994;SDS011;25686;51.908;10.418;2022-07-05T06:06:17;7.95;;;2.20;;
39994;SDS011;25686;51.908;10.418;2022-07-05T06:08:18;6.18;;;2.40;;
39994;SDS011;25686;51.908;10.418;2022-07-05T06:10:20;5.70;;;2.00;;
39994;SDS011;25686;51.908;10.418;2022-07-05T06:12:22;5.82;;;2.03;;
39994;SDS011;25686;51.908;10.418;2022-07-05T06:14:22;9.60;;;2.30;;
39994;SDS011;25686;51.908;10.418;2022-07-05T06:16:23;4.03;;;2.13;;
39994;SDS011;25686;51.908;10.418;2022-07-05T06:18:24;6.55;;;2.30;;
39994;SDS011;25686;51.908;10.418;2022-07-05T06:20:27;6.13;;;2.40;;
39994;SDS011;25686;51.908;10.418;2022-07-05T06:22:30;13.40;;;2.50;;
39994;SDS011;25686;51.908;10.418;2022-07-05T06:24:31;4.10;;;2.30;;
39994;SDS011;25686;51.908;10.418;2022-07-05T06:26:32;5.70;;;2.47;;
39994;SDS011;25686;51.908;10.418;2022-07-05T06:28:33;5.35;;;2.40;;
39994;SDS011;25686;51.908;10.418;2022-07-05T06:30:35;9.13;;;2.50;;
39994;SDS011;25686;51.908;10.418;2022-07-05T06:32:36;6.47;;;2.63;;
39994;SDS011;25686;51.908;10.418;2022-07-05T06:34:37;5.75;;;2.05;;
39994;SDS011;25686;51.908;10.418;2022-07-05T06:36:38;6.43;;;2.30;;
39994;SDS011;25686;51.908;10.418;2022-07-05T06:38:39;5.07;;;2.15;;
39994;SDS011;25686;51.908;10.418;2022-07-05T06:40:41;7.97;;;2.55;;
39994;SDS011;25686;51.908;10.418;2022-07-05T06:42:42;9.35;;;2.20;;
39994;SDS011;25686;51.908;10.418;2022-07-05T06:44:43;4.90;;;2.08;;
39994;SDS011;25686;51.908;10.418;2022-07-05T06:46:44;5.18;;;2.72;;
39994;SDS011;25686;51.908;10.418;2022-07-05T06:48:45;5.38;;;1.98;;
39994;SDS011;25686;51.908;10.418;2022-07-05T06:50:46;5.97;;;2.03;;
39994;SDS011;25686;51.908;10.418;2022-07-05T06:52:47;2.90;;;1.80;;
39994;SDS011;25686;51.908;10.418;2022-07-05T06:54:47;5.68;;;2.40;;
39994;SDS011;25686;51.908;10.418;2022-07-05T06:56:48;7.10;;;2.30;;
39994;SDS011;25686;51.908;10.418;2022-07-05T06:58:49;6.13;;;2.20;;
39994;SDS011;25686;51.908;10.418;2022-07-05T07:00:50;6.00;;;2.08;;
39994;SDS011;25686;51.908;10.418;2022-07-05T07:02:51;9.10;;;2.22;;
39994;SDS011;25686;51.908;10.418;2022-07-05T07:04:52;5.80;;;2.38;;
39994;SDS011;25686;51.908;10.418;2022-07-05T07:06:53;3.85;;;2.00;;
39994;SDS011;25686;51.908;10.418;2022-07-05T07:08:54;5.82;;;2.33;;
39994;SDS011;25686;51.908;10.418;2022-07-05T07:11:14;8.73;;;1.95;;
39994;SDS011;25686;51.908;10.418;2022-07-05T07:13:15;6.10;;;2.10;;
39994;SDS011;25686;51.908;10.418;2022-07-05T07:15:16;7.57;;;2.50;;
39994;SDS011;25686;51.908;10.418;2022-07-05T07:17:17;6.90;;;2.33;;
39994;SDS011;25686;51.908;10.418;2022-07-05T07:19:18;4.93;;;2.22;;
39994;SDS011;25686;51.908;10.418;2022-07-05T07:21:19;7.70;;;2.40;;
39994;SDS011;25686;51.908;10.418;2022-07-05T07:23:20;5.95;;;2.20;;
39994;SDS011;25686;51.908;10.418;2022-07-05T07:25:21;5.30;;;2.28;;
39994;SDS011;25686;51.908;10.418;2022-07-05T07:27:23;5.70;;;2.38;;
39994;SDS011;25686;51.908;10.418;2022-07-05T07:29:24;7.45;;;2.08;;
39994;SDS011;25686;51.908;10.418;2022-07-05T07:31:25;5.65;;;2.15;;
39994;SDS011;25686;51.908;10.418;2022-07-05T07:33:26;5.30;;;2.33;;
39994;SDS011;25686;51.908;10.418;2022-07-05T07:35:27;6.93;;;2.00;;
39994;SDS011;25686;51.908;10.418;2022-07-05T07:37:28;4.80;;;2.03;;
39994;SDS011;25686;51.908;10.418;2022-07-05T07:39:29;6.68;;;2.10;;
39994;SDS011;25686;51.908;10.418;2022-07-05T07:41:31;5.78;;;2.10;;
39994;SDS011;25686;51.908;10.418;2022-07-05T07:43:32;6.10;;;1.92;;
39994;SDS011;25686;51.908;10.418;2022-07-05T07:45:33;5.60;;;2.35;;
39994;SDS011;25686;51.908;10.418;2022-07-05T07:47:35;6.13;;;2.10;;
39994;SDS011;25686;51.908;10.418;2022-07-05T07:49:36;5.45;;;2.00;;
39994;SDS011;25686;51.908;10.418;2022-07-05T07:51:37;3.50;;;1.75;;
39994;SDS011;25686;51.908;10.418;2022-07-05T07:53:38;5.10;;;1.92;;
39994;SDS011;25686;51.908;10.418;2022-07-05T07:55:39;5.88;;;2.20;;
39994;SDS011;25686;51.908;10.418;2022-07-05T07:57:40;4.57;;;1.70;;
39994;SDS011;25686;51.908;10.418;2022-07-05T07:59:40;3.38;;;1.80;;
39994;SDS011;25686;51.908;10.418;2022-07-05T08:01:42;6.30;;;1.60;;
39994;SDS011;25686;51.908;10.418;2022-07-05T08:03:43;4.50;;;1.63;;
39994;SDS011;25686;51.908;10.418;2022-07-05T08:05:44;4.18;;;1.70;;
39994;SDS011;25686;51.908;10.418;2022-07-05T08:07:45;6.53;;;1.63;;
39994;SDS011;25686;51.908;10.418;2022-07-05T08:09:46;7.07;;;1.55;;
39994;SDS011;25686;51.908;10.418;2022-07-05T08:11:47;4.80;;;1.60;;
39994;SDS011;25686;51.908;10.418;2022-07-05T08:13:48;4.63;;;1.60;;
39994;SDS011;25686;51.908;10.418;2022-07-05T08:15:48;5.60;;;1.60;;
39994;SDS011;25686;51.908;10.418;2022-07-05T08:17:49;7.20;;;1.60;;
39994;SDS011;25686;51.908;10.418;2022-07-05T08:20:09;4.45;;;1.63;;
39994;SDS011;25686;51.908;10.418;2022-07-05T08:22:29;5.45;;;1.30;;
39994;SDS011;25686;51.908;10.418;2022-07-05T08:24:30;5.35;;;1.65;;
39994;SDS011;25686;51.908;10.418;2022-07-05T08:26:31;5.07;;;1.88;;
39994;SDS011;25686;51.908;10.418;2022-07-05T08:28:32;3.85;;;1.50;;
39994;SDS011;25686;51.908;10.418;2022-07-05T08:30:33;6.45;;;1.42;;
39994;SDS011;25686;51.908;10.418;2022-07-05T08:32:34;3.72;;;1.67;;
39994;SDS011;25686;51.908;10.418;2022-07-05T08:34:35;4.93;;;1.80;;
39994;SDS011;25686;51.908;10.418;2022-07-05T08:36:36;4.78;;;1.60;;
39994;SDS011;25686;51.908;10.418;2022-07-05T08:38:38;7.07;;;1.92;;
39994;SDS011;25686;51.908;10.418;2022-07-05T08:40:39;5.35;;;1.70;;
39994;SDS011;25686;51.908;10.418;2022-07-05T08:42:42;4.88;;;1.60;;
39994;SDS011;25686;51.908;10.418;2022-07-05T08:44:43;5.05;;;2.00;;
39994;SDS011;25686;51.908;10.418;2022-07-05T08:46:44;5.22;;;1.55;;
39994;SDS011;25686;51.908;10.418;2022-07-05T08:48:50;7.28;;;1.90;;
39994;SDS011;25686;51.908;10.418;2022-07-05T08:50:51;6.85;;;2.10;;
39994;SDS011;25686;51.908;10.418;2022-07-05T08:52:53;4.72;;;1.58;;
39994;SDS011;25686;51.908;10.418;2022-07-05T08:54:54;4.35;;;1.52;;
39994;SDS011;25686;51.908;10.418;2022-07-05T08:56:55;5.20;;;1.77;;
39994;SDS011;25686;51.908;10.418;2022-07-05T08:58:56;3.78;;;1.60;;
39994;SDS011;25686;51.908;10.418;2022-07-05T09:00:57;5.53;;;1.95;;
39994;SDS011;25686;51.908;10.418;2022-07-05T09:02:59;4.18;;;1.83;;
39994;SDS011;25686;51.908;10.418;2022-07-05T09:05:00;9.10;;;1.90;;
39994;SDS011;25686;51.908;10.418;2022-07-05T09:07:03;3.53;;;1.88;;
39994;SDS011;25686;51.908;10.418;2022-07-05T09:09:05;5.85;;;2.13;;
39994;SDS011;25686;51.908;10.418;2022-07-05T09:11:07;3.92;;;1.75;;
39994;SDS011;25686;51.908;10.418;2022-07-05T09:13:09;5.80;;;2.00;;
39994;SDS011;25686;51.908;10.418;2022-07-05T09:15:10;3.80;;;1.80;;
39994;SDS011;25686;51.908;10.418;2022-07-05T09:17:11;4.63;;;1.80;;
39994;SDS011;25686;51.908;10.418;2022-07-05T09:19:12;7.88;;;1.90;;
39994;SDS011;25686;51.908;10.418;2022-07-05T09:21:17;6.40;;;1.95;;
39994;SDS011;25686;51.908;10.418;2022-07-05T09:23:20;3.83;;;1.90;;
39994;SDS011;25686;51.908;10.418;2022-07-05T09:25:22;4.45;;;1.67;;
39994;SDS011;25686;51.908;10.418;2022-07-05T09:27:23;4.53;;;2.05;;
39994;SDS011;25686;51.908;10.418;2022-07-05T09:29:24;4.60;;;1.50;;
39994;SDS011;25686;51.908;10.418;2022-07-05T09:31:38;5.07;;;1.67;;
39994;SDS011;25686;51.908;10.418;2022-07-05T09:33:48;5.05;;;1.63;;
39994;SDS011;25686;51.908;10.418;2022-07-05T09:35:54;4.55;;;1.90;;
39994;SDS011;25686;51.908;10.418;2022-07-05T09:37:59;5.97;;;1.65;;
39994;SDS011;25686;51.908;10.418;2022-07-05T09:40:03;4.80;;;1.60;;
39994;SDS011;25686;51.908;10.418;2022-07-05T09:44:26;3.35;;;1.63;;
39994;SDS011;25686;51.908;10.418;2022-07-05T09:46:30;3.22;;;1.65;;
39994;SDS011;25686;51.908;10.418;2022-07-05T09:48:32;3.17;;;1.55;;
39994;SDS011;25686;51.908;10.418;2022-07-05T09:50:34;8.23;;;1.70;;
39994;SDS011;25686;51.908;10.418;2022-07-05T09:52:36;4.20;;;1.38;;
39994;SDS011;25686;51.908;10.418;2022-07-05T09:54:37;3.38;;;1.50;;
39994;SDS011;25686;51.908;10.418;2022-07-05T09:56:44;3.00;;;1.38;;
39994;SDS011;25686;51.908;10.418;2022-07-05T09:58:45;4.30;;;1.48;;
39994;SDS011;25686;51.908;10.418;2022-07-05T10:00:47;3.85;;;1.40;;
39994;SDS011;25686;51.908;10.418;2022-07-05T10:02:48;7.78;;;1.80;;
39994;SDS011;25686;51.908;10.418;2022-07-05T10:04:50;5.13;;;1.70;;
39994;SDS011;25686;51.908;10.418;2022-07-05T10:07:07;4.68;;;1.63;;
39994;SDS011;25686;51.908;10.418;2022-07-05T10:09:09;3.55;;;1.42;;
39994;SDS011;25686;51.908;10.418;2022-07-05T10:11:10;5.00;;;1.60;;
39994;SDS011;25686;51.908;10.418;2022-07-05T10:13:12;3.70;;;1.38;;
39994;SDS011;25686;51.908;10.418;2022-07-05T10:15:14;3.95;;;1.60;;
39994;SDS011;25686;51.908;10.418;2022-07-05T10:17:16;4.53;;;1.40;;
39994;SDS011;25686;51.908;10.418;2022-07-05T10:19:20;3.28;;;1.83;;
39994;SDS011;25686;51.908;10.418;2022-07-05T10:21:23;3.72;;;1.52;;
39994;SDS011;25686;51.908;10.418;2022-07-05T10:23:24;3.63;;;1.30;;
39994;SDS011;25686;51.908;10.418;2022-07-05T10:25:25;2.90;;;1.40;;
39994;SDS011;25686;51.908;10.418;2022-07-05T10:27:27;7.32;;;1.40;;
39994;SDS011;25686;51.908;10.418;2022-07-05T10:29:28;3.78;;;1.38;;
39994;SDS011;25686;51.908;10.418;2022-07-05T10:31:29;2.80;;;1.50;;
39994;SDS011;25686;51.908;10.418;2022-07-05T10:33:31;2.97;;;1.30;;
39994;SDS011;25686;51.908;10.418;2022-07-05T10:35:33;3.40;;;1.35;;
39994;SDS011;25686;51.908;10.418;2022-07-05T10:37:34;5.38;;;1.40;;
39994;SDS011;25686;51.908;10.418;2022-07-05T10:39:35;3.58;;;1.30;;
39994;SDS011;25686;51.908;10.418;2022-07-05T10:41:36;4.72;;;1.60;;
39994;SDS011;25686;51.908;10.418;2022-07-05T10:43:40;3.58;;;1.05;;
39994;SDS011;25686;51.908;10.418;2022-07-05T10:45:46;6.05;;;1.15;;
39994;SDS011;25686;51.908;10.418;2022-07-05T10:50:18;5.07;;;1.40;;
39994;SDS011;25686;51.908;10.418;2022-07-05T10:52:22;5.22;;;1.33;;
39994;SDS011;25686;51.908;10.418;2022-07-05T10:54:23;2.90;;;1.30;;
39994;SDS011;25686;51.908;10.418;2022-07-05T10:56:24;1.67;;;1.13;;
39994;SDS011;25686;51.908;10.418;2022-07-05T10:58:26;2.22;;;1.30;;
39994;SDS011;25686;51.908;10.418;2022-07-05T11:00:30;2.85;;;1.20;;
39994;SDS011;25686;51.908;10.418;2022-07-05T11:02:31;3.47;;;1.48;;
39994;SDS011;25686;51.908;10.418;2022-07-05T11:04:32;5.57;;;1.42;;
39994;SDS011;25686;51.908;10.418;2022-07-05T11:11:13;2.63;;;1.30;;
39994;SDS011;25686;51.908;10.418;2022-07-05T11:13:35;2.83;;;1.20;;
39994;SDS011;25686;51.908;10.418;2022-07-05T11:15:36;2.30;;;1.20;;
39994;SDS011;25686;51.908;10.418;2022-07-05T11:17:37;5.28;;;1.30;;
39994;SDS011;25686;51.908;10.418;2022-07-05T11:19:58;2.85;;;1.35;;
39994;SDS011;25686;51.908;10.418;2022-07-05T11:22:00;2.78;;;1.20;;
39994;SDS011;25686;51.908;10.418;2022-07-05T11:24:20;3.45;;;1.30;;
39994;SDS011;25686;51.908;10.418;2022-07-05T11:26:22;1.60;;;1.35;;
39994;SDS011;25686;51.908;10.418;2022-07-05T11:28:23;2.28;;;1.17;;
39994;SDS011;25686;51.908;10.418;2022-07-05T11:30:24;1.48;;;1.30;;
39994;SDS011;25686;51.908;10.418;2022-07-05T11:34:32;2.28;;;1.38;;
39994;SDS011;25686;51.908;10.418;2022-07-05T11:36:33;2.35;;;1.40;;
39994;SDS011;25686;51.908;10.418;2022-07-05T11:38:34;1.67;;;1.42;;
39994;SDS011;25686;51.908;10.418;2022-07-05T11:40:38;3.10;;;1.30;;
39994;SDS011;25686;51.908;10.418;2022-07-05T11:42:49;2.42;;;1.40;;
39994;SDS011;25686;51.908;10.418;2022-07-05T11:44:50;5.75;;;1.40;;
39994;SDS011;25686;51.908;10.418;2022-07-05T11:46:51;3.08;;;1.40;;
39994;SDS011;25686;51.908;10.418;2022-07-05T11:48:52;3.83;;;1.50;;
39994;SDS011;25686;51.908;10.418;2022-07-05T11:50:54;1.75;;;1.15;;
39994;SDS011;25686;51.908;10.418;2022-07-05T11:52:55;1.85;;;1.30;;
39994;SDS011;25686;51.908;10.418;2022-07-05T11:54:57;1.90;;;1.13;;
39994;SDS011;25686;51.908;10.418;2022-07-05T11:57:01;6.05;;;1.30;;
39994;SDS011;25686;51.908;10.418;2022-07-05T11:59:16;2.60;;;1.40;;
39994;SDS011;25686;51.908;10.418;2022-07-05T12:01:17;6.53;;;1.58;;
39994;SDS011;25686;51.908;10.418;2022-07-05T12:03:18;2.47;;;1.13;;
39994;SDS011;25686;51.908;10.418;2022-07-05T12:05:18;1.60;;;1.10;;
39994;SDS011;25686;51.908;10.418;2022-07-05T12:07:33;2.17;;;1.45;;
39994;SDS011;25686;51.908;10.418;2022-07-05T12:09:34;1.60;;;1.30;;
39994;SDS011;25686;51.908;10.418;2022-07-05T12:11:55;4.32;;;1.60;;
39994;SDS011;25686;51.908;10.418;2022-07-05T12:14:21;2.35;;;1.30;;
39994;SDS011;25686;51.908;10.418;2022-07-05T12:16:22;2.55;;;1.40;;